Time;durP1;ratioP1;P1;durP2;ratioP2;P2;SDS_P1;SDS_P2;PMS_P1;PMS_P2;Temp;Humidity;BMP_temperature;BMP_pressure;BME280_temperature;BME280_humidity;BME280_pressure;Samples;Min_cycle;Max_cycle;Signal;HPM_P1;HPM_P2
2022/04/18 00:00:28;;;;;;;0.60;0.60;;;;;;;5.76;51.49;97186.53;29373;272;63009;-64
2022/04/18 00:01:04;;;;;;;0.60;0.60;;;;;;;5.77;51.28;97188.16;29373;293;63005;-59
2022/04/18 00:01:38;;;;;;;0.60;0.60;;;;;;;5.78;51.35;97184.41;29373;278;63009;-63
2022/04/18 00:02:10;;;;;;;0.50;0.50;;;;;;;5.77;51.47;97185.47;29371;387;64004;-58
2022/04/18 00:02:45;;;;;;;0.50;0.50;;;;;;;5.77;51.60;97180.06;29373;270;63009;-65
2022/04/18 00:03:17;;;;;;;0.50;0.50;;;;;;;5.78;51.82;97180.87;29373;231;63004;-59
2022/04/18 00:03:50;;;;;;;0.60;0.60;;;;;;;5.79;51.39;97177.94;29373;237;63009;-59
2022/04/18 00:04:22;;;;;;;0.60;0.60;;;;;;;5.78;51.30;97175.50;29373;280;63004;-58
2022/04/18 00:04:54;;;;;;;0.60;0.60;;;;;;;5.79;51.72;97180.63;29373;324;63008;-59
2022/04/18 00:05:26;;;;;;;0.60;0.60;;;;;;;5.80;51.00;97179.56;29373;200;63005;-58
2022/04/18 00:06:01;;;;;;;0.60;0.60;;;;;;;5.80;51.11;97182.25;29371;272;64009;-58
2022/04/18 00:06:35;;;;;;;0.57;0.57;;;;;;;5.81;51.30;97175.81;29371;224;64005;-66
2022/04/18 00:07:06;;;;;;;0.60;0.60;;;;;;;5.81;51.21;97175.81;29373;289;63009;-59
2022/04/18 00:07:37;;;;;;;0.60;0.60;;;;;;;5.82;50.86;97172.03;29373;237;63005;-59
2022/04/18 00:08:12;;;;;;;0.50;0.50;;;;;;;5.82;50.96;97172.03;29395;222;63009;-58
2022/04/18 00:08:44;;;;;;;0.60;0.60;;;;;;;5.83;50.90;97167.47;29373;323;63004;-59
2022/04/18 00:09:15;;;;;;;0.60;0.60;;;;;;;5.84;50.93;97172.59;29373;203;63009;-59
2022/04/18 00:09:46;;;;;;;0.60;0.60;;;;;;;5.83;50.94;97173.69;29373;312;63004;-59
2022/04/18 00:10:17;;;;;;;0.60;0.60;;;;;;;5.84;50.99;97172.59;29395;221;63009;-58
2022/04/18 00:10:48;;;;;;;0.50;0.50;;;;;;;5.84;51.06;97180.69;29395;232;63010;-58
2022/04/18 00:11:20;;;;;;;0.50;0.50;;;;;;;5.84;50.97;97167.22;29395;216;63008;-64
2022/04/18 00:11:51;;;;;;;0.55;0.55;;;;;;;5.85;50.79;97171.53;29394;221;64004;-63
2022/04/18 00:12:22;;;;;;;0.50;0.50;;;;;;;5.84;50.69;97169.91;29395;308;63008;-64
2022/04/18 00:12:54;;;;;;;0.50;0.50;;;;;;;5.85;50.85;97163.47;29373;199;63005;-64
2022/04/18 00:13:25;;;;;;;0.60;0.60;;;;;;;5.85;50.93;97166.16;29373;217;63009;-64
2022/04/18 00:13:56;;;;;;;0.60;0.60;;;;;;;5.86;50.91;97167.78;29395;224;63005;-58
2022/04/18 00:14:28;;;;;;;0.60;0.60;;;;;;;5.85;50.72;97171.53;29373;309;63009;-63
2022/04/18 00:14:59;;;;;;;0.60;0.60;;;;;;;5.84;50.75;97167.22;29373;263;63005;-63
2022/04/18 00:15:30;;;;;;;0.60;0.60;;;;;;;5.85;50.70;97166.16;29373;322;63009;-59
2022/04/18 00:16:01;;;;;;;0.50;0.50;;;;;;;5.86;50.44;97164.28;29372;287;64005;-58
2022/04/18 00:16:33;;;;;;;0.60;0.60;;;;;;;5.85;50.65;97166.16;29373;336;63009;-63
2022/04/18 00:17:09;;;;;;;0.50;0.50;;;;;;;5.84;50.61;97161.84;29394;261;64004;-58
2022/04/18 00:17:43;;;;;;;0.60;0.60;;;;;;;5.84;50.61;97169.91;29373;222;63009;-64
2022/04/18 00:18:14;;;;;;;0.50;0.50;;;;;;;5.83;50.70;97168.28;29373;197;63004;-58
2022/04/18 00:18:46;;;;;;;0.60;0.60;;;;;;;5.83;50.74;97168.28;29373;278;63008;-58
2022/04/18 00:19:17;;;;;;;0.57;0.57;;;;;;;5.84;50.52;97163.72;29373;239;63004;-59
2022/04/18 00:19:48;;;;;;;0.50;0.50;;;;;;;5.83;50.67;97157.50;29395;208;63009;-58
2022/04/18 00:20:20;;;;;;;0.52;0.52;;;;;;;5.85;50.54;97163.47;29373;318;63001;-59
2022/04/18 00:20:51;;;;;;;0.60;0.60;;;;;;;5.85;50.66;97166.16;29371;289;64009;-58
2022/04/18 00:21:23;;;;;;;0.50;0.50;;;;;;;5.85;50.26;97165.34;29395;237;63005;-64
2022/04/18 00:21:55;;;;;;;0.60;0.60;;;;;;;5.85;50.32;97160.78;29373;260;63009;-59
2022/04/18 00:22:27;;;;;;;0.60;0.60;;;;;;;5.85;50.46;97157.25;29373;235;63008;-60
2022/04/18 00:22:58;;;;;;;0.60;0.60;;;;;;;5.86;50.33;97166.97;29371;250;64009;-59
2022/04/18 00:23:29;;;;;;;0.50;0.50;;;;;;;5.84;50.38;97161.84;29373;312;63005;-59
2022/04/18 00:24:00;;;;;;;0.60;0.60;;;;;;;5.85;50.69;97168.84;29395;226;63009;-58
2022/04/18 00:24:32;;;;;;;0.60;0.60;;;;;;;5.85;50.35;97159.97;29395;210;63004;-58
2022/04/18 00:25:04;;;;;;;0.60;0.60;;;;;;;5.86;50.40;97165.09;29395;216;63009;-59
2022/04/18 00:25:38;;;;;;;0.60;0.60;;;;;;;5.85;50.24;97158.06;29373;262;63004;-58
2022/04/18 00:26:10;;;;;;;0.50;0.50;;;;;;;5.87;50.52;97157.81;29371;199;64008;-64
2022/04/18 00:26:42;;;;;;;0.60;0.60;;;;;;;5.87;50.63;97152.44;29373;202;63004;-58
2022/04/18 00:27:13;;;;;;;0.60;0.60;;;;;;;5.88;50.57;97157.56;29373;215;63009;-64
2022/04/18 00:27:49;;;;;;;0.50;0.50;;;;;;;5.89;50.42;97161.09;29395;301;63005;-58
2022/04/18 00:28:20;;;;;;;0.60;0.60;;;;;;;5.89;50.53;97159.19;29371;384;64023;-64
2022/04/18 00:28:53;;;;;;;0.60;0.60;;;;;;;5.89;50.29;97159.19;29373;238;63005;-59
2022/04/18 00:29:25;;;;;;;0.60;0.60;;;;;;;5.91;50.17;97154.38;29373;280;63009;-58
2022/04/18 00:29:56;;;;;;;0.60;0.60;;;;;;;5.91;50.11;97158.94;29373;239;63005;-63
2022/04/18 00:30:29;;;;;;;0.60;0.60;;;;;;;5.91;50.38;97159.75;29373;295;63009;-60
2022/04/18 00:31:00;;;;;;;0.50;0.50;;;;;;;5.91;50.25;97158.94;29373;240;63005;-64
2022/04/18 00:31:33;;;;;;;0.50;0.50;;;;;;;5.91;50.37;97157.06;29373;212;63009;-63
2022/04/18 00:32:06;;;;;;;0.60;0.60;;;;;;;5.92;50.54;97158.69;29394;265;64004;-65
2022/04/18 00:32:37;;;;;;;0.60;0.60;;;;;;;5.93;50.41;97165.69;29394;243;64009;-58
2022/04/18 00:33:09;;;;;;;0.60;0.60;;;;;;;5.92;50.22;97158.69;29394;225;64004;-64
2022/04/18 00:33:42;;;;;;;0.60;0.60;;;;;;;5.93;50.57;97157.63;29373;225;63009;-58
2022/04/18 00:34:14;;;;;;;0.60;0.60;;;;;;;5.93;50.46;97152.22;29373;234;63004;-58
2022/04/18 00:34:46;;;;;;;0.50;0.50;;;;;;;5.94;50.32;97156.53;29373;321;63009;-65
2022/04/18 00:35:17;;;;;;;0.60;0.60;;;;;;;5.93;50.06;97152.22;29373;370;63005;-59
2022/04/18 00:35:49;;;;;;;0.50;0.50;;;;;;;5.93;50.05;97146.84;29373;197;63009;-58
2022/04/18 00:36:20;;;;;;;0.60;0.60;;;;;;;5.95;49.99;97157.34;29373;199;63005;-60
2022/04/18 00:36:51;;;;;;;0.50;0.50;;;;;;;5.95;50.28;97150.09;29395;311;63014;-64
2022/04/18 00:37:23;;;;;;;0.60;0.60;;;;;;;5.95;50.15;97155.47;29394;214;64005;-63
2022/04/18 00:37:54;;;;;;;0.60;0.60;;;;;;;5.94;49.91;97156.53;29373;254;63009;-59
2022/04/18 00:38:29;;;;;;;0.60;0.60;;;;;;;5.94;49.97;97153.84;29373;228;63005;-58
2022/04/18 00:39:04;;;;;;;0.50;0.50;;;;;;;5.95;50.06;97154.66;29394;295;64009;-58
2022/04/18 00:39:38;;;;;;;0.60;0.60;;;;;;;5.94;50.32;97143.06;29371;251;64016;-59
2022/04/18 00:40:11;;;;;;;0.50;0.50;;;;;;;5.93;49.96;97157.63;29395;211;63009;-64
2022/04/18 00:40:44;;;;;;;0.60;0.60;;;;;;;5.94;50.09;97147.66;29395;218;63004;-63
2022/04/18 00:41:15;;;;;;;0.55;0.55;;;;;;;5.92;50.28;97153.28;29371;229;64008;-63
2022/04/18 00:41:46;;;;;;;0.57;0.57;;;;;;;5.91;50.20;97158.94;29373;277;63004;-64
2022/04/18 00:42:17;;;;;;;0.60;0.60;;;;;;;5.90;50.25;97152.75;29373;196;63009;-64
2022/04/18 00:42:50;;;;;;;0.57;0.57;;;;;;;5.89;50.41;97148.41;29373;292;63005;-60
2022/04/18 00:43:43;;;;;;;0.60;0.60;;;;;;;5.85;50.95;97152.69;29371;231;64024;-64
2022/04/18 00:44:15;;;;;;;0.60;0.60;;;;;;;5.84;51.03;97161.84;29394;286;64005;-59
2022/04/18 00:44:46;;;;;;;0.60;0.60;;;;;;;5.83;50.92;97146.75;29373;227;63009;-60
2022/04/18 00:45:18;;;;;;;0.60;0.60;;;;;;;5.83;50.82;97160.22;29373;369;63000;-59
2022/04/18 00:45:49;;;;;;;0.60;0.60;;;;;;;5.82;51.00;97150.50;29373;305;63021;-59
2022/04/18 00:46:20;;;;;;;0.60;0.60;;;;;;;5.82;51.07;97153.19;29371;338;64004;-60
2022/04/18 00:46:52;;;;;;;0.60;0.60;;;;;;;5.81;50.98;97148.88;29373;206;63009;-58
2022/04/18 00:47:23;;;;;;;0.50;0.50;;;;;;;5.82;51.05;97152.38;29395;272;63004;-58
2022/04/18 00:47:54;;;;;;;0.60;0.60;;;;;;;5.80;51.18;97152.63;29395;227;63009;-64
2022/04/18 00:48:25;;;;;;;0.57;0.57;;;;;;;5.78;51.15;97148.56;29394;273;64004;-59
2022/04/18 00:48:57;;;;;;;0.60;0.60;;;;;;;5.79;51.01;97148.31;29371;217;64008;-59
2022/04/18 00:49:28;;;;;;;0.60;0.60;;;;;;;5.79;51.00;97150.19;29395;202;63004;-58
2022/04/18 00:50:01;;;;;;;0.57;0.57;;;;;;;5.80;50.95;97149.13;29373;243;63009;-59
2022/04/18 00:50:35;;;;;;;0.52;0.52;;;;;;;5.79;50.75;97151.00;29373;283;63005;-64
2022/04/18 00:51:10;;;;;;;0.60;0.60;;;;;;;5.80;50.90;97151.81;29395;213;63009;-63
2022/04/18 00:51:42;;;;;;;0.60;0.60;;;;;;;5.81;50.79;97148.06;29395;315;63005;-59
2022/04/18 00:52:13;;;;;;;0.60;0.60;;;;;;;5.81;50.61;97146.19;29373;204;63009;-59
2022/04/18 00:52:47;;;;;;;0.60;0.60;;;;;;;5.81;50.58;97150.75;29373;223;63005;-59
2022/04/18 00:53:19;;;;;;;0.60;0.60;;;;;;;5.82;50.70;97144.31;29373;234;63009;-58
2022/04/18 00:53:56;;;;;;;0.50;0.50;;;;;;;5.82;50.82;97152.38;29394;204;64004;-58
2022/04/18 00:54:34;;;;;;;0.50;0.50;;;;;;;5.82;50.94;97137.03;29395;265;63009;-59
2022/04/18 00:55:07;;;;;;;0.60;0.60;;;;;;;5.82;50.73;97142.44;29373;214;63004;-59
2022/04/18 00:55:38;;;;;;;0.60;0.60;;;;;;;5.84;50.76;97148.38;29373;240;63009;-58
2022/04/18 00:56:14;;;;;;;0.60;0.60;;;;;;;5.85;50.58;97143.78;29373;252;63004;-58
2022/04/18 00:56:45;;;;;;;0.60;0.60;;;;;;;5.86;50.60;97134.66;29373;303;63008;-58
2022/04/18 00:57:17;;;;;;;0.60;0.60;;;;;;;5.86;50.46;97140.03;29395;210;63005;-65
2022/04/18 00:57:49;;;;;;;0.60;0.60;;;;;;;5.87;50.39;97131.69;29373;226;63021;-60
2022/04/18 00:58:20;;;;;;;0.60;0.60;;;;;;;5.88;50.22;97143.28;29373;216;63005;-58
2022/04/18 00:58:52;;;;;;;0.60;0.60;;;;;;;5.88;50.15;97138.72;29371;197;64009;-65
2022/04/18 00:59:23;;;;;;;0.60;0.60;;;;;;;5.87;50.45;97137.09;29373;299;63005;-64
2022/04/18 00:59:55;;;;;;;0.60;0.60;;;;;;;5.87;50.46;97126.31;29371;200;64009;-64
2022/04/18 01:00:26;;;;;;;0.60;0.60;;;;;;;5.88;50.39;97127.94;29373;242;63005;-64
2022/04/18 01:01:01;;;;;;;0.60;0.60;;;;;;;5.88;50.38;97136.03;29373;222;63009;-64
2022/04/18 01:01:33;;;;;;;0.60;0.60;;;;;;;5.88;50.28;97133.31;29395;281;63004;-58
2022/04/18 01:02:13;;;;;;;0.60;0.60;;;;;;;5.88;50.33;97129.81;29373;234;63009;-58
2022/04/18 01:02:45;;;;;;;0.60;0.60;;;;;;;5.87;50.21;97131.69;29373;198;63004;-63
2022/04/18 01:03:18;;;;;;;0.60;0.60;;;;;;;5.87;50.34;97142.47;29373;299;63009;-58
2022/04/18 01:03:53;;;;;;;0.60;0.60;;;;;;;5.87;50.61;97136.28;29371;299;64004;-58
2022/04/18 01:04:25;;;;;;;0.60;0.60;;;;;;;5.85;50.57;97131.16;29373;207;63008;-59
2022/04/18 01:04:56;;;;;;;0.60;0.60;;;;;;;5.85;50.50;97139.22;29373;320;63005;-58
2022/04/18 01:05:27;;;;;;;0.60;0.60;;;;;;;5.85;50.52;97141.09;29373;323;63009;-59
2022/04/18 01:06:03;;;;;;;0.60;0.60;;;;;;;5.84;50.57;97137.59;29373;220;63005;-59
2022/04/18 01:06:34;;;;;;;0.60;0.60;;;;;;;5.84;50.80;97140.28;29373;263;63009;-58
2022/04/18 01:07:06;;;;;;;0.60;0.60;;;;;;;5.83;50.79;97135.97;29371;197;64005;-59
2022/04/18 01:07:39;;;;;;;0.60;0.60;;;;;;;5.83;50.83;97125.19;29373;277;63009;-59
2022/04/18 01:08:12;;;;;;;0.50;0.50;;;;;;;5.83;50.77;97135.97;29373;202;63005;-60
2022/04/18 01:08:46;;;;;;;0.60;0.60;;;;;;;5.82;50.78;97134.34;29373;327;63009;-58
2022/04/18 01:09:18;;;;;;;0.60;0.60;;;;;;;5.83;51.10;97135.97;29373;296;63004;-64
2022/04/18 01:09:49;;;;;;;0.60;0.60;;;;;;;5.81;51.00;97138.09;29373;198;63009;-58
2022/04/18 01:10:23;;;;;;;0.60;0.60;;;;;;;5.80;50.93;97125.72;29373;305;63004;-58
2022/04/18 01:10:55;;;;;;;0.60;0.60;;;;;;;5.80;50.82;97131.09;29373;347;63009;-64
2022/04/18 01:11:26;;;;;;;0.60;0.60;;;;;;;5.80;50.85;97131.09;29373;374;63004;-58
2022/04/18 01:12:01;;;;;;;0.60;0.60;;;;;;;5.75;51.74;97133.75;29371;208;64008;-57
2022/04/18 01:12:34;;;;;;;0.60;0.60;;;;;;;5.64;53.16;97138.22;29373;246;63005;-66
2022/04/18 01:13:07;;;;;;;0.50;0.50;;;;;;;5.55;53.47;97145.13;29373;245;63009;-65
2022/04/18 01:13:50;;;;;;;0.60;0.60;;;;;;;5.45;53.54;97145.03;29372;202;64005;-65
2022/04/18 01:14:21;;;;;;;0.60;0.60;;;;;;;5.31;54.01;97144.63;29373;267;63009;-59
2022/04/18 01:14:52;;;;;;;0.60;0.60;;;;;;;5.23;54.99;97142.37;29371;268;64005;-58
2022/04/18 01:15:23;;;;;;;0.60;0.60;;;;;;;5.22;54.42;97143.44;29371;244;64024;-58
2022/04/18 01:15:56;;;;;;;0.60;0.60;;;;;;;5.22;55.14;97146.12;29371;258;64004;-64
2022/04/18 01:16:28;;;;;;;0.60;0.60;;;;;;;5.20;54.80;97140.19;29373;282;63009;-59
2022/04/18 01:16:59;;;;;;;0.60;0.60;;;;;;;5.21;54.80;97141.81;29373;295;63004;-64
2022/04/18 01:17:30;;;;;;;0.60;0.60;;;;;;;5.21;54.66;97147.19;29373;257;63009;-64
2022/04/18 01:18:02;;;;;;;0.60;0.60;;;;;;;5.22;54.66;97139.94;29373;299;63004;-64
2022/04/18 01:18:33;;;;;;;0.52;0.52;;;;;;;5.22;54.61;97135.37;29373;268;63008;-59
2022/04/18 01:19:04;;;;;;;0.50;0.50;;;;;;;5.23;54.25;97142.37;29373;238;63004;-59
2022/04/18 01:19:35;;;;;;;0.60;0.60;;;;;;;5.24;54.30;97144.00;29373;219;63008;-67
2022/04/18 01:20:08;;;;;;;0.55;0.55;;;;;;;5.25;54.31;97134.84;29373;399;63005;-58
2022/04/18 01:20:43;;;;;;;0.60;0.60;;;;;;;5.28;53.84;97138.94;29371;333;64009;-59
2022/04/18 01:21:18;;;;;;;0.60;0.60;;;;;;;5.29;53.60;97138.66;29373;225;63005;-63
2022/04/18 01:21:49;;;;;;;0.60;0.60;;;;;;;5.30;53.53;97132.22;29373;330;63009;-64
2022/04/18 01:22:22;;;;;;;0.60;0.60;;;;;;;5.33;53.33;97130.91;29373;291;63005;-58
2022/04/18 01:22:54;;;;;;;0.50;0.50;;;;;;;5.34;53.30;97133.34;29371;250;64009;-63
2022/04/18 01:23:25;;;;;;;0.50;0.50;;;;;;;5.35;52.84;97132.28;29373;278;63004;-57
2022/04/18 01:23:59;;;;;;;0.60;0.60;;;;;;;5.39;52.79;97129.91;29373;207;63009;-58
2022/04/18 01:29:05;;;;;;;0.60;0.60;;;;;;;5.41;52.50;97121.56;29373;260;63009;-66
2022/04/18 01:29:36;;;;;;;;;;;;;;;5.42;52.07;97113.25;29974;982;28000;-58
2022/04/18 01:30:08;;;;;;;0.60;0.60;;;;;;;5.43;52.00;97119.44;29421;301;64005;-58
2022/04/18 01:30:39;;;;;;;0.60;0.60;;;;;;;5.43;51.82;97117.56;29373;242;63009;-58
2022/04/18 01:31:11;;;;;;;0.60;0.60;;;;;;;5.45;51.83;97117.31;29373;260;63004;-63
2022/04/18 01:31:42;;;;;;;0.57;0.57;;;;;;;5.45;51.64;97115.44;29373;208;63009;-58
2022/04/18 01:32:13;;;;;;;0.60;0.60;;;;;;;5.46;51.78;97116.25;29371;254;64004;-64
2022/04/18 01:32:45;;;;;;;0.60;0.60;;;;;;;5.48;51.64;97116.81;29373;240;63009;-57
2022/04/18 01:33:16;;;;;;;0.60;0.60;;;;;;;5.48;51.93;97111.44;29373;210;63004;-64
2022/04/18 01:33:47;;;;;;;0.60;0.60;;;;;;;5.49;51.76;97113.06;29373;203;63008;-58
2022/04/18 01:34:18;;;;;;;0.55;0.55;;;;;;;5.48;51.96;97108.72;29373;239;63005;-58
2022/04/18 01:34:49;;;;;;;0.60;0.60;;;;;;;5.49;51.56;97113.06;29373;256;63009;-64
2022/04/18 01:35:20;;;;;;;0.60;0.60;;;;;;;5.49;51.60;97107.66;29373;210;63005;-59
2022/04/18 01:35:52;;;;;;;0.60;0.60;;;;;;;5.48;51.74;97106.03;29373;253;63009;-58
2022/04/18 01:36:27;;;;;;;0.50;0.50;;;;;;;5.47;51.63;97107.09;29373;292;63000;-59
2022/04/18 01:37:00;;;;;;;0.60;0.60;;;;;;;5.47;51.57;97107.09;29371;211;64009;-63
2022/04/18 01:37:34;;;;;;;0.50;0.50;;;;;;;5.47;51.57;97113.31;29373;198;63010;-58
2022/04/18 01:38:07;;;;;;;0.60;0.60;;;;;;;5.46;51.50;97108.19;29373;290;63025;-63
2022/04/18 01:38:41;;;;;;;0.60;0.60;;;;;;;5.46;51.52;97102.78;29373;206;63004;-63
2022/04/18 01:39:13;;;;;;;0.50;0.50;;;;;;;5.46;51.60;97105.47;29373;289;63024;-59
2022/04/18 01:39:44;;;;;;;0.60;0.60;;;;;;;5.44;51.70;97104.94;29373;231;63004;-58
2022/04/18 01:40:18;;;;;;;0.60;0.60;;;;;;;5.43;51.94;97103.31;29395;258;63009;-58
2022/04/18 01:40:50;;;;;;;0.50;0.50;;;;;;;5.43;52.12;97101.41;29373;227;63004;-64
2022/04/18 01:41:21;;;;;;;0.60;0.60;;;;;;;5.44;52.09;97104.94;29371;209;64008;-64
2022/04/18 01:41:52;;;;;;;0.50;0.50;;;;;;;5.44;51.99;97100.34;29395;327;63005;-63
2022/04/18 01:42:27;;;;;;;0.60;0.60;;;;;;;5.44;52.05;97102.22;29373;242;63009;-58
2022/04/18 01:43:02;;;;;;;0.60;0.60;;;;;;;5.42;52.30;97107.06;29395;204;63005;-66
2022/04/18 01:43:34;;;;;;;0.60;0.60;;;;;;;5.39;52.33;97103.00;29395;346;63009;-58
2022/04/18 01:44:05;;;;;;;0.52;0.52;;;;;;;5.38;52.41;97101.38;29373;216;63005;-58
2022/04/18 01:44:36;;;;;;;0.60;0.60;;;;;;;5.34;52.80;97101.06;29373;304;63009;-58
2022/04/18 01:45:09;;;;;;;0.60;0.60;;;;;;;5.33;52.82;97102.13;29373;198;63005;-58
2022/04/18 01:45:41;;;;;;;0.60;0.60;;;;;;;5.30;53.21;97102.63;29373;196;63009;-64
2022/04/18 01:46:13;;;;;;;0.60;0.60;;;;;;;5.29;53.40;97103.69;29373;196;63004;-58
2022/04/18 01:46:45;;;;;;;0.50;0.50;;;;;;;5.28;53.17;97104.75;29371;304;64023;-58
2022/04/18 01:47:16;;;;;;;0.60;0.60;;;;;;;5.28;53.74;97112.03;29373;313;63004;-58
2022/04/18 01:47:48;;;;;;;0.60;0.60;;;;;;;5.25;53.65;97113.34;29373;212;63009;-59
2022/04/18 01:48:19;;;;;;;0.60;0.60;;;;;;;5.24;53.57;97105.53;29373;283;63004;-65
2022/04/18 01:48:51;;;;;;;0.70;0.70;;;;;;;5.24;53.35;97110.91;29373;199;63008;-58
2022/04/18 01:49:23;;;;;;;0.60;0.60;;;;;;;5.25;53.77;97105.25;29373;216;63005;-58
2022/04/18 01:49:54;;;;;;;0.60;0.60;;;;;;;5.25;53.43;97105.25;29373;234;63009;-63
2022/04/18 01:50:25;;;;;;;0.60;0.60;;;;;;;5.24;53.85;97106.34;29373;197;63016;-64
2022/04/18 01:50:56;;;;;;;0.60;0.60;;;;;;;5.22;54.11;97103.09;29373;290;63009;-63
2022/04/18 01:51:28;;;;;;;0.50;0.50;;;;;;;5.20;53.97;97105.22;29371;248;64005;-65
2022/04/18 01:51:59;;;;;;;0.60;0.60;;;;;;;5.19;53.76;97103.63;29373;234;63015;-59
2022/04/18 01:52:30;;;;;;;0.60;0.60;;;;;;;5.19;54.00;97105.50;29373;196;63005;-58
2022/04/18 01:53:03;;;;;;;0.50;0.50;;;;;;;5.19;53.91;97111.69;29373;223;63009;-64
2022/04/18 01:53:34;;;;;;;0.50;0.50;;;;;;;5.20;54.01;97105.22;29373;334;63004;-63
2022/04/18 01:54:05;;;;;;;0.60;0.60;;;;;;;5.19;53.71;97098.22;29373;294;63009;-58
2022/04/18 01:54:36;;;;;;;0.60;0.60;;;;;;;5.19;54.07;97098.22;29373;216;63004;-62
2022/04/18 01:55:12;;;;;;;0.60;0.60;;;;;;;5.18;53.73;97101.19;29373;224;63009;-58
2022/04/18 01:55:43;;;;;;;0.60;0.60;;;;;;;5.18;53.61;97109.25;29373;266;63003;-58
2022/04/18 01:56:15;;;;;;;0.60;0.60;;;;;;;5.17;53.79;97111.13;29371;314;64008;-64
2022/04/18 01:56:46;;;;;;;0.50;0.50;;;;;;;5.18;53.59;97104.69;29373;240;63005;-58
2022/04/18 01:57:21;;;;;;;0.57;0.57;;;;;;;5.18;53.73;97104.69;29373;278;63009;-62
2022/04/18 01:57:52;;;;;;;0.57;0.57;;;;;;;5.19;53.49;97114.38;29371;258;64005;-58
2022/04/18 01:58:23;;;;;;;0.60;0.60;;;;;;;5.18;53.65;97107.38;29373;342;63009;-58
2022/04/18 01:58:55;;;;;;;0.60;0.60;;;;;;;5.15;54.50;97107.88;29373;224;63005;-58
2022/04/18 01:59:26;;;;;;;0.60;0.60;;;;;;;5.14;54.39;97117.00;29373;210;63009;-64
2022/04/18 01:59:57;;;;;;;0.90;0.90;;;;;;;5.07;56.04;97115.56;29373;377;63005;-58
2022/04/18 02:00:28;;;;;;;0.60;0.60;;;;;;;5.03;56.36;97117.94;29373;341;63009;-58
2022/04/18 02:00:59;;;;;;;0.60;0.60;;;;;;;4.98;56.35;97115.19;29373;224;63009;-59
2022/04/18 02:01:34;;;;;;;0.60;0.60;;;;;;;4.97;55.70;97118.94;29373;233;63009;-64
2022/04/18 02:02:05;;;;;;;0.60;0.60;;;;;;;4.93;58.16;97129.38;29373;291;63004;-59
2022/04/18 02:02:37;;;;;;;0.60;0.60;;;;;;;4.85;58.14;97134.41;29371;285;64009;-65
2022/04/18 02:03:08;;;;;;;0.60;0.60;;;;;;;4.76;59.13;97135.91;29373;213;63004;-57
2022/04/18 02:03:45;;;;;;;0.98;0.98;;;;;;;4.67;58.36;97128.28;29373;198;63008;-58
2022/04/18 02:04:16;;;;;;;0.60;0.60;;;;;;;4.65;58.35;97129.59;29371;351;64004;-59
2022/04/18 02:04:48;;;;;;;0.60;0.60;;;;;;;4.64;57.76;97128.75;29373;245;63009;-58
2022/04/18 02:05:19;;;;;;;0.60;0.60;;;;;;;4.62;57.33;97125.50;29373;202;63008;-60
2022/04/18 02:05:52;;;;;;;0.50;0.50;;;;;;;4.65;57.23;97130.41;29373;359;63009;-65
2022/04/18 02:06:23;;;;;;;0.77;0.77;;;;;;;4.68;57.08;97118.34;29373;321;63005;-59
2022/04/18 02:06:55;;;;;;;0.55;0.55;;;;;;;4.69;56.93;97120.78;29373;293;63009;-58
2022/04/18 02:07:26;;;;;;;0.60;0.60;;;;;;;4.71;56.70;97121.34;29373;282;63005;-58
2022/04/18 02:07:59;;;;;;;0.60;0.60;;;;;;;4.74;56.78;97121.91;29373;227;63009;-58
2022/04/18 02:08:30;;;;;;;0.60;0.60;;;;;;;4.72;57.39;97125.66;29371;208;64004;-57
2022/04/18 02:09:02;;;;;;;0.60;0.60;;;;;;;4.71;56.89;97121.34;29373;298;63009;-66
2022/04/18 02:09:33;;;;;;;0.60;0.60;;;;;;;4.69;58.79;97131.53;29395;199;63004;-59
2022/04/18 02:10:05;;;;;;;0.60;0.60;;;;;;;4.64;58.39;97126.09;29373;218;63009;-58
2022/04/18 02:10:37;;;;;;;1.02;1.02;;;;;;;4.58;58.04;97124.38;29373;246;63004;-58
2022/04/18 02:11:10;;;;;;;0.60;0.60;;;;;;;4.54;58.51;97123.25;29373;274;63008;-58
2022/04/18 02:11:41;;;;;;;0.60;0.60;;;;;;;4.52;57.86;97117.31;29373;279;63004;-59
2022/04/18 02:12:15;;;;;;;0.60;0.60;;;;;;;4.53;57.82;97124.31;29371;323;64009;-58
2022/04/18 02:12:49;;;;;;;0.60;0.60;;;;;;;4.54;58.52;97123.25;29373;224;63005;-64
2022/04/18 02:13:21;;;;;;;0.60;0.60;;;;;;;4.52;58.72;97130.75;29373;256;63009;-58
2022/04/18 02:13:53;;;;;;;0.60;0.60;;;;;;;4.49;60.06;97127.78;29373;199;63005;-66
2022/04/18 02:14:24;;;;;;;0.60;0.60;;;;;;;4.40;59.88;97122.00;29371;204;64009;-64
2022/04/18 02:14:56;;;;;;;0.60;0.60;;;;;;;4.35;60.01;97121.94;29373;199;63005;-57
2022/04/18 02:15:27;;;;;;;0.65;0.65;;;;;;;4.30;60.66;97124.53;29373;259;63009;-63
2022/04/18 02:15:59;;;;;;;0.60;0.60;;;;;;;4.23;59.78;97121.22;29372;241;64005;-58
2022/04/18 02:16:30;;;;;;;1.17;1.17;;;;;;;4.15;59.67;97122.47;29373;215;63009;-57
2022/04/18 02:17:02;;;;;;;0.80;0.80;;;;;;;4.14;60.30;97125.41;29373;269;63004;-65
2022/04/18 02:17:33;;;;;;;0.62;0.62;;;;;;;4.15;59.35;97119.78;29373;224;63009;-64
2022/04/18 02:18:06;;;;;;;0.60;0.60;;;;;;;4.18;59.18;97118.44;29373;222;63004;-58
2022/04/18 02:18:37;;;;;;;0.60;0.60;;;;;;;4.22;59.22;97119.56;29373;204;63005;-64
2022/04/18 02:19:10;;;;;;;0.70;0.70;;;;;;;4.26;59.37;97118.03;29373;203;63005;-65
2022/04/18 02:19:45;;;;;;;0.60;0.60;;;;;;;4.26;59.48;97123.41;29371;253;64009;-58
2022/04/18 02:20:16;;;;;;;0.60;0.60;;;;;;;4.26;58.87;97118.03;29373;220;63005;-59
2022/04/18 02:20:47;;;;;;;0.60;0.60;;;;;;;4.28;59.13;97118.59;29373;226;63009;-64
2022/04/18 02:21:19;;;;;;;0.73;0.73;;;;;;;4.29;59.44;97122.91;29373;216;63005;-63
2022/04/18 02:21:50;;;;;;;0.60;0.60;;;;;;;4.29;59.62;97117.53;29373;242;63009;-64
2022/04/18 02:22:23;;;;;;;0.60;0.60;;;;;;;4.30;58.88;97116.47;29373;206;63005;-63
2022/04/18 02:22:56;;;;;;;0.60;0.60;;;;;;;4.30;58.99;97111.09;29371;219;64009;-64
2022/04/18 02:23:27;;;;;;;0.70;0.70;;;;;;;4.31;58.84;97104.69;29373;208;63004;-64
2022/04/18 02:23:59;;;;;;;0.60;0.60;;;;;;;4.32;59.04;97109.00;29373;284;63009;-59
2022/04/18 02:24:30;;;;;;;0.60;0.60;;;;;;;4.32;58.56;97109.00;29373;196;63004;-64
2022/04/18 02:25:02;;;;;;;0.60;0.60;;;;;;;4.32;58.77;97104.44;29373;202;63009;-64
2022/04/18 02:25:34;;;;;;;0.60;0.60;;;;;;;4.33;59.02;97110.63;29373;220;63004;-65
2022/04/18 02:26:05;;;;;;;0.60;0.60;;;;;;;4.31;58.79;97097.44;29373;210;63008;-63
2022/04/18 02:26:36;;;;;;;0.60;0.60;;;;;;;4.33;59.05;97105.25;29373;262;63005;-63
2022/04/18 02:27:09;;;;;;;0.62;0.62;;;;;;;4.32;59.03;97109.00;29373;210;63009;-58
2022/04/18 02:27:43;;;;;;;0.57;0.57;;;;;;;4.33;58.74;97105.25;29371;231;64005;-58
2022/04/18 02:28:14;;;;;;;0.60;0.60;;;;;;;4.33;58.54;97098.00;29373;218;63009;-58
2022/04/18 02:28:45;;;;;;;0.60;0.60;;;;;;;4.34;58.74;97102.31;29371;197;64005;-64
2022/04/18 02:29:17;;;;;;;0.60;0.60;;;;;;;4.34;58.31;97098.81;29373;197;63009;-58
2022/04/18 02:29:51;;;;;;;0.60;0.60;;;;;;;4.35;58.35;97098.56;29373;203;63005;-58
2022/04/18 02:30:22;;;;;;;0.50;0.50;;;;;;;4.36;58.71;97099.38;29373;197;63009;-63
2022/04/18 02:30:53;;;;;;;0.60;0.60;;;;;;;4.37;58.34;97095.63;29373;210;63004;-63
2022/04/18 02:31:25;;;;;;;0.80;0.80;;;;;;;4.39;58.17;97090.81;29374;222;63009;-59
2022/04/18 02:32:48;;;;;;;0.60;0.60;;;;;;;4.42;57.67;97087.66;29373;212;63009;-61
2022/04/18 02:33:19;;;;;;;0.60;0.60;;;;;;;4.40;57.79;97084.38;29371;227;64004;-63
2022/04/18 02:33:50;;;;;;;0.60;0.60;;;;;;;4.46;57.88;97090.66;29371;231;64009;-59
2022/04/18 02:34:21;;;;;;;0.60;0.60;;;;;;;4.47;58.38;97101.16;29371;246;64005;-64
2022/04/18 02:34:53;;;;;;;0.60;0.60;;;;;;;4.45;58.52;97097.91;29373;218;63009;-58
2022/04/18 02:35:25;;;;;;;0.60;0.60;;;;;;;4.45;58.55;97094.41;29373;207;63005;-63
2022/04/18 02:35:56;;;;;;;0.60;0.60;;;;;;;4.44;59.72;97101.62;29373;228;63009;-58
2022/04/18 02:36:27;;;;;;;0.60;0.60;;;;;;;4.41;59.40;97101.31;29373;209;63005;-64
2022/04/18 02:37:02;;;;;;;0.60;0.60;;;;;;;4.40;59.32;97100.50;29373;203;63016;-64
2022/04/18 02:37:34;;;;;;;0.60;0.60;;;;;;;4.39;59.41;97093.50;29373;325;63005;-65
2022/04/18 02:38:05;;;;;;;0.60;0.60;;;;;;;4.38;58.81;97094.56;29373;213;63009;-59
2022/04/18 02:38:36;;;;;;;0.60;0.60;;;;;;;4.40;59.00;97095.13;29373;257;63004;-65
2022/04/18 02:39:08;;;;;;;0.50;0.50;;;;;;;4.40;59.34;97094.31;29371;202;64009;-63
2022/04/18 02:39:42;;;;;;;0.60;0.60;;;;;;;4.40;59.65;97094.31;29372;250;64004;-63
2022/04/18 02:40:14;;;;;;;0.60;0.60;;;;;;;4.40;59.20;97095.13;29373;206;63009;-58
2022/04/18 02:40:46;;;;;;;0.60;0.60;;;;;;;4.39;58.95;97093.50;29373;229;63004;-61
2022/04/18 02:41:17;;;;;;;0.60;0.60;;;;;;;4.40;59.26;97095.13;29371;215;64009;-63